createdAt,value
2023-10-25T00:00:14.175Z,96502.31
2023-10-25T00:02:41.374Z,96506.56
2023-10-25T00:05:10.473Z,96507.88
2023-10-25T00:07:37.612Z,96509.25
2023-10-25T00:10:05.525Z,96503.28
2023-10-25T00:12:32.762Z,96508.19
2023-10-25T00:14:59.973Z,96513.09
2023-10-25T00:17:27.200Z,96514.03
2023-10-25T00:19:54.382Z,96519.72
2023-10-25T00:22:22.892Z,96515.09
2023-10-25T00:24:50.086Z,96519.97
2023-10-25T00:27:17.314Z,96531.75
2023-10-25T00:29:44.854Z,96528.72
2023-10-25T00:32:12.047Z,96519.84
2023-10-25T00:34:39.232Z,96527.03
2023-10-25T00:37:06.434Z,96526.22
2023-10-25T00:39:35.008Z,96524.97
2023-10-25T00:42:02.217Z,96530.34
2023-10-25T00:44:29.371Z,96519.56
2023-10-25T00:46:56.787Z,96526.56
2023-10-25T00:49:24.732Z,96535.44
2023-10-25T00:51:51.951Z,96532.41
2023-10-25T00:54:19.604Z,96538.78
2023-10-25T00:56:49.977Z,96532.72
2023-10-25T00:59:18.980Z,96533.50
2023-10-25T01:01:47.418Z,96536.69
2023-10-25T01:04:14.987Z,96538.09
2023-10-25T01:06:42.381Z,96533.19
2023-10-25T01:09:10.049Z,96543.50
2023-10-25T01:11:38.230Z,96543.63
2023-10-25T01:14:07.041Z,96551.53
2023-10-25T01:16:34.224Z,96554.22
2023-10-25T01:19:01.881Z,96550.63
2023-10-25T01:21:29.553Z,96551.53
2023-10-25T01:23:58.063Z,96548.53
2023-10-25T01:26:25.198Z,96550.13
2023-10-25T01:28:52.368Z,96538.09
2023-10-25T01:31:19.603Z,96544.47
2023-10-25T01:33:46.866Z,96551.13
2023-10-25T01:36:14.069Z,96532.06
2023-10-25T01:38:41.208Z,96549.69
2023-10-25T01:41:10.425Z,96547.00
2023-10-25T01:43:37.581Z,96543.81
2023-10-25T01:46:04.759Z,96536.81
2023-10-25T01:48:32.078Z,96525.69
2023-10-25T01:50:59.273Z,96537.13
2023-10-25T01:53:26.392Z,96524.25
2023-10-25T01:55:53.539Z,96529.53
2023-10-25T01:58:22.054Z,96533.97
2023-10-25T02:00:49.257Z,96538.06
2023-10-25T02:03:16.504Z,96541.38
2023-10-25T02:05:43.890Z,96545.78
2023-10-25T02:08:11.042Z,96536.28
2023-10-25T02:10:38.226Z,96542.66
2023-10-25T02:13:05.551Z,96540.56
2023-10-25T02:15:34.023Z,96535.66
2023-10-25T02:18:01.231Z,96536.13
2023-10-25T02:20:28.441Z,96530.16
2023-10-25T02:22:55.576Z,96541.91
2023-10-25T02:25:22.760Z,96543.19
2023-10-25T02:27:50.155Z,96540.00
2023-10-25T02:30:17.382Z,96546.00
2023-10-25T02:32:45.905Z,96550.28
2023-10-25T02:35:13.103Z,96549.00
2023-10-25T02:37:40.236Z,96554.41
2023-10-25T02:40:08.418Z,96548.84
2023-10-25T02:42:35.605Z,96549.63
2023-10-25T02:45:02.824Z,96546.44
2023-10-25T02:47:30.067Z,96553.91
2023-10-25T02:49:58.570Z,96546.63
2023-10-25T02:52:25.698Z,96545.03
2023-10-25T02:54:54.668Z,96541.50
2023-10-25T02:57:21.934Z,96546.38
2023-10-25T02:59:49.077Z,96539.06
2023-10-25T03:02:16.224Z,96544.47
2023-10-25T03:04:43.511Z,96549.28
2023-10-25T03:07:12.109Z,96544.69
2023-10-25T03:09:39.342Z,96543.25
2023-10-25T03:12:06.803Z,96540.44
2023-10-25T03:14:33.950Z,96540.63
2023-10-25T03:17:01.133Z,96543.63
2023-10-25T03:19:28.406Z,96539.97
2023-10-25T03:21:55.642Z,96540.44
2023-10-25T03:24:24.203Z,96544.22
2023-10-25T03:26:51.371Z,96533.91
2023-10-25T03:29:18.517Z,96533.28
2023-10-25T03:31:45.688Z,96532.81
2023-10-25T03:34:13.083Z,96530.09
2023-10-25T03:36:40.345Z,96537.16
2023-10-25T03:39:07.566Z,96532.81
2023-10-25T03:41:36.067Z,96540.06
2023-10-25T03:44:03.240Z,96538.19
2023-10-25T03:46:30.480Z,96546.19
2023-10-25T03:48:57.763Z,96540.13
2023-10-25T03:51:24.922Z,96542.50
2023-10-25T03:53:52.244Z,96540.91
2023-10-25T03:56:19.416Z,96531.53
2023-10-25T03:58:47.923Z,96544.28
2023-10-25T04:01:15.203Z,96540.72
2023-10-25T04:03:42.562Z,96537.72
2023-10-25T04:06:10.069Z,96546.91
2023-10-25T04:08:37.587Z,96548.34
2023-10-25T04:11:04.990Z,96542.84
2023-10-25T04:13:32.230Z,96550.47
2023-10-25T04:16:02.428Z,96545.25
2023-10-25T04:18:30.962Z,96550.72
2023-10-25T04:21:00.074Z,96539.59
2023-10-25T04:23:28.765Z,96544.66
2023-10-25T04:26:04.089Z,96539.34
2023-10-25T04:28:31.723Z,96535.72
2023-10-25T04:31:00.569Z,96536.41
2023-10-25T04:33:28.180Z,96534.63
2023-10-25T04:35:55.312Z,96533.81
2023-10-25T04:38:22.570Z,96519.59
2023-10-25T04:40:49.716Z,96539.81
2023-10-25T04:43:17.063Z,96538.59
2023-10-25T04:45:44.298Z,96541.13
2023-10-25T04:48:12.857Z,96532.09
2023-10-25T04:50:40.059Z,96523.72
2023-10-25T04:53:07.534Z,96530.16
2023-10-25T04:55:35.787Z,96531.94
2023-10-25T04:58:04.041Z,96534.84
2023-10-25T05:00:31.760Z,96534.00
2023-10-25T05:02:59.248Z,96537.91
2023-10-25T05:05:27.825Z,96533.09
2023-10-25T05:07:55.642Z,96509.47
2023-10-25T05:10:23.390Z,96527.94
2023-10-25T05:12:51.126Z,96534.59
2023-10-25T05:15:19.370Z,96536.72
2023-10-25T05:17:48.147Z,96525.72
2023-10-25T05:20:16.163Z,96533.00
2023-10-25T05:22:50.506Z,96527.53
2023-10-25T05:25:18.757Z,96521.91
2023-10-25T05:27:46.674Z,96522.09
2023-10-25T05:30:15.584Z,96520.81
2023-10-25T05:32:45.464Z,96521.25
2023-10-25T05:35:13.570Z,96524.19
2023-10-25T05:37:41.246Z,96527.94
2023-10-25T05:40:11.028Z,96511.63
2023-10-25T05:42:46.892Z,96531.06
2023-10-25T05:45:14.430Z,96529.59
2023-10-25T05:47:42.509Z,96532.59
2023-10-25T05:50:10.948Z,96534.59
2023-10-25T05:52:38.732Z,96537.31
2023-10-25T05:55:07.133Z,96539.81
2023-10-25T05:57:36.391Z,96540.94
2023-10-25T06:00:04.613Z,96528.31
2023-10-25T06:02:34.571Z,96539.28
2023-10-25T06:05:06.850Z,96536.28
2023-10-25T06:07:35.166Z,96529.47
2023-10-25T06:10:02.965Z,96531.69
2023-10-25T06:12:30.770Z,96535.25
2023-10-25T06:14:59.280Z,96527.91
2023-10-25T06:17:26.773Z,96539.38
2023-10-25T06:19:54.010Z,96536.97
2023-10-25T06:22:21.264Z,96534.63
2023-10-25T06:24:48.509Z,96544.38
2023-10-25T06:27:15.698Z,96543.09
2023-10-25T06:29:42.854Z,96541.00
2023-10-25T06:32:11.514Z,96548.00
2023-10-25T06:34:38.650Z,96554.16
2023-10-25T06:37:07.469Z,96545.00
2023-10-25T06:39:35.142Z,96549.59
2023-10-25T06:42:02.788Z,96542.59
2023-10-25T06:44:30.436Z,96537.16
2023-10-25T06:46:58.355Z,96537.81
2023-10-25T06:49:27.700Z,96544.81
2023-10-25T06:51:55.437Z,96550.63
2023-10-25T06:54:23.168Z,96543.81
2023-10-25T06:56:50.904Z,96537.16
2023-10-25T06:59:18.663Z,96541.84
2023-10-25T07:01:47.194Z,96532.75
2023-10-25T07:04:15.692Z,96534.66
2023-10-25T07:06:46.702Z,96532.75
2023-10-25T07:09:14.612Z,96513.53
2023-10-25T07:11:41.744Z,96532.25
2023-10-25T07:14:08.912Z,96530.38
2023-10-25T07:16:37.085Z,96535.44
2023-10-25T07:19:04.412Z,96535.94
2023-10-25T07:21:31.694Z,96527.78
2023-10-25T07:24:00.631Z,96517.50
2023-10-25T07:26:27.777Z,96519.59
2023-10-25T07:28:54.973Z,96521.66
2023-10-25T07:31:22.255Z,96526.88
2023-10-25T07:33:49.732Z,96508.50
2023-10-25T07:36:16.873Z,96513.22
2023-10-25T07:38:44.144Z,96523.50
2023-10-25T07:41:12.622Z,96525.88
2023-10-25T07:43:39.785Z,96525.09
2023-10-25T07:46:07.000Z,96534.28
2023-10-25T07:48:34.191Z,96527.00
2023-10-25T07:51:04.395Z,96537.47
2023-10-25T07:53:31.627Z,96535.94
2023-10-25T07:58:34.095Z,96527.78
2023-10-25T08:01:01.659Z,96529.88
2023-10-25T08:03:28.933Z,96520.69
2023-10-25T08:05:56.524Z,96518.78
2023-10-25T08:08:23.724Z,96514.72
2023-10-25T08:11:00.058Z,96504.25
2023-10-25T08:13:27.213Z,96495.25
2023-10-25T08:15:58.822Z,96497.88
2023-10-25T08:18:27.592Z,96495.47
2023-10-25T08:20:57.246Z,96498.47
2023-10-25T08:23:26.009Z,96503.06
2023-10-25T08:25:53.293Z,96497.66
2023-10-25T08:28:20.874Z,96492.88
2023-10-25T08:30:48.245Z,96494.75
2023-10-25T08:33:16.929Z,96499.53
2023-10-25T08:35:44.152Z,96499.84
2023-10-25T08:38:11.299Z,96501.06
2023-10-25T08:40:38.661Z,96502.16
2023-10-25T08:43:05.811Z,96506.63
2023-10-25T08:45:33.036Z,96508.94
2023-10-25T08:48:00.348Z,96513.03
2023-10-25T08:50:31.212Z,96497.78
2023-10-25T08:52:59.012Z,96505.47
2023-10-25T08:55:26.352Z,96505.47
2023-10-25T08:57:53.515Z,96499.66
2023-10-25T09:00:23.630Z,96498.56
2023-10-25T09:03:02.759Z,96492.00
2023-10-25T09:05:41.744Z,96485.69
2023-10-25T09:08:15.459Z,96498.84
2023-10-25T09:10:42.597Z,96489.88
2023-10-25T09:13:13.236Z,96494.56
2023-10-25T09:15:40.435Z,96482.78
2023-10-25T09:18:07.689Z,96484.69
2023-10-25T09:20:34.967Z,96472.34
2023-10-25T09:23:13.111Z,96471.00
2023-10-25T09:25:40.284Z,96476.91
2023-10-25T09:28:15.482Z,96467.53
2023-10-25T09:30:43.703Z,96474.03
2023-10-25T09:33:11.238Z,96459.47
2023-10-25T09:35:38.563Z,96449.81
2023-10-25T09:38:05.728Z,96446.94
2023-10-25T09:40:34.208Z,96446.00
2023-10-25T09:43:06.934Z,96442.22
2023-10-25T09:45:35.487Z,96439.53
2023-10-25T09:48:08.305Z,96430.38
2023-10-25T09:50:42.696Z,96432.66
2023-10-25T09:53:15.099Z,96431.13
2023-10-25T09:55:46.924Z,96437.88
2023-10-25T09:58:16.365Z,96422.66
2023-10-25T10:00:43.750Z,96438.38
2023-10-25T10:03:23.244Z,96424.31
2023-10-25T10:05:56.744Z,96428.72
2023-10-25T10:08:31.300Z,96422.84
2023-10-25T10:11:06.105Z,96414.28
2023-10-25T10:13:33.269Z,96414.44
2023-10-25T10:16:02.044Z,96410.66
2023-10-25T10:18:30.039Z,96406.25
2023-10-25T10:21:01.319Z,96405.38
2023-10-25T10:23:36.552Z,96404.31
2023-10-25T10:26:05.758Z,96391.94
2023-10-25T10:28:43.193Z,96386.38
2023-10-25T10:31:12.425Z,96377.97
2023-10-25T10:33:44.855Z,96382.66
2023-10-25T10:36:12.428Z,96351.25
2023-10-25T10:39:13.247Z,96357.47
2023-10-25T10:41:43.171Z,96356.69
2023-10-25T10:44:10.938Z,96351.59
2023-10-25T10:46:44.297Z,96360.19
2023-10-25T10:49:11.839Z,96339.72
2023-10-25T10:51:39.015Z,96353.72
2023-10-25T10:54:06.585Z,96339.41
2023-10-25T10:56:34.678Z,96344.03
2023-10-25T10:59:03.303Z,96338.03
2023-10-25T11:01:31.074Z,96328.03
2023-10-25T11:03:58.664Z,96324.38
2023-10-25T11:06:25.983Z,96315.97
2023-10-25T11:08:53.738Z,96319.00
2023-10-25T11:11:21.632Z,96309.31
2023-10-25T11:13:50.092Z,96308.53
2023-10-25T11:16:18.963Z,96311.41
2023-10-25T11:18:46.123Z,96301.41
2023-10-25T11:21:13.330Z,96296.16
2023-10-25T11:23:40.615Z,96298.06
2023-10-25T11:26:07.789Z,96293.47
2023-10-25T11:28:35.018Z,96290.16
2023-10-25T11:31:03.244Z,96289.22
2023-10-25T11:33:43.032Z,96285.44
2023-10-25T11:36:11.389Z,96266.16
2023-10-25T11:38:42.426Z,96254.06
2023-10-25T11:41:10.253Z,96260.13
2023-10-25T11:43:37.496Z,96251.72
2023-10-25T11:46:04.792Z,96243.47
2023-10-25T11:48:34.750Z,96248.09
2023-10-25T11:51:02.677Z,96243.81
2023-10-25T11:53:29.883Z,96241.00
2023-10-25T11:55:57.078Z,96237.00
2023-10-25T11:58:24.246Z,96231.31
2023-10-25T12:00:51.734Z,96230.88
2023-10-25T12:03:18.965Z,96229.44
2023-10-25T12:05:47.704Z,96212.31
2023-10-25T12:08:14.876Z,96210.41
2023-10-25T12:10:42.016Z,96201.97
2023-10-25T12:13:09.166Z,96192.47
2023-10-25T12:15:36.395Z,96196.59
2023-10-25T12:18:03.812Z,96192.94
2023-10-25T12:20:31.049Z,96188.22
2023-10-25T12:22:59.677Z,96187.13
2023-10-25T12:25:28.043Z,96167.75
2023-10-25T12:27:55.267Z,96175.03
2023-10-25T12:30:22.412Z,96170.00
2023-10-25T12:32:50.251Z,96158.59
2023-10-25T12:35:17.692Z,96163.97
2023-10-25T12:37:44.840Z,96152.06
2023-10-25T12:40:13.572Z,96150.16
2023-10-25T12:42:40.786Z,96145.91
2023-10-25T12:45:08.611Z,96141.13
2023-10-25T12:47:35.896Z,96132.25
2023-10-25T12:50:03.322Z,96118.00
2023-10-25T12:52:30.452Z,96117.69
2023-10-25T12:54:57.592Z,96122.75
2023-10-25T12:57:26.112Z,96121.97
2023-10-25T12:59:53.334Z,96116.44
2023-10-25T13:02:20.635Z,96122.28
2023-10-25T13:04:47.939Z,96110.06
2023-10-25T13:07:15.554Z,96098.66
2023-10-25T13:09:42.692Z,96089.94
2023-10-25T13:12:10.506Z,96081.88
2023-10-25T13:14:39.153Z,96076.00
2023-10-25T13:17:19.070Z,96086.78
2023-10-25T13:19:47.212Z,96074.88
2023-10-25T13:22:14.334Z,96084.09
2023-10-25T13:24:41.645Z,96072.53
2023-10-25T13:27:09.039Z,96065.69
2023-10-25T13:29:36.419Z,96057.31
2023-10-25T13:32:05.505Z,96048.41
2023-10-25T13:34:32.676Z,96055.69
2023-10-25T13:36:59.809Z,96054.91
2023-10-25T13:39:26.993Z,96052.53
2023-10-25T13:41:54.412Z,96057.31
2023-10-25T13:44:21.535Z,96064.56
2023-10-25T13:46:48.664Z,96060.31
2023-10-25T13:49:17.405Z,96057.94
2023-10-25T13:51:45.822Z,96043.81
2023-10-25T13:54:12.990Z,96041.13
2023-10-25T13:56:40.140Z,96032.56
2023-10-25T13:59:07.308Z,96026.88
2023-10-25T14:01:34.493Z,96034.97
2023-10-25T14:04:01.891Z,96031.00
2023-10-25T14:06:30.443Z,96018.31
2023-10-25T14:08:57.600Z,96004.66
2023-10-25T14:11:24.855Z,95998.19
2023-10-25T14:13:51.999Z,95994.84
2023-10-25T14:16:19.156Z,95994.97
2023-10-25T14:18:46.624Z,95999.91
2023-10-25T14:21:17.391Z,95984.06
2023-10-25T14:23:47.247Z,95997.19
2023-10-25T14:26:14.536Z,95985.31
2023-10-25T14:28:41.684Z,95982.31
2023-10-25T14:31:14.052Z,95966.44
2023-10-25T14:33:41.282Z,95957.91
2023-10-25T14:36:12.329Z,95951.38
2023-10-25T14:38:39.470Z,95933.03
2023-10-25T14:41:09.072Z,95944.75
2023-10-25T14:43:36.820Z,95948.53
2023-10-25T14:46:04.665Z,95934.94
2023-10-25T14:48:31.918Z,95937.03
2023-10-25T14:50:59.119Z,95933.03
2023-10-25T14:53:26.285Z,95920.69
2023-10-25T14:55:53.534Z,95914.53
2023-10-25T14:58:22.019Z,95897.09
2023-10-25T15:00:49.217Z,95907.69
2023-10-25T15:03:16.533Z,95911.50
2023-10-25T15:05:43.952Z,95909.28
2023-10-25T15:08:11.281Z,95912.94
2023-10-25T15:10:38.396Z,95914.31
2023-10-25T15:13:05.512Z,95914.19
2023-10-25T15:15:34.089Z,95907.19
2023-10-25T15:18:01.466Z,95902.28
2023-10-25T15:20:28.664Z,95901.03
2023-10-25T15:22:55.802Z,95901.69
2023-10-25T15:25:22.897Z,95903.25
2023-10-25T15:27:50.337Z,95910.22
2023-10-25T15:30:17.577Z,95894.84
2023-10-25T15:32:46.145Z,95893.91
2023-10-25T15:35:13.416Z,95899.63
2023-10-25T15:37:40.861Z,95902.00
2023-10-25T15:40:15.954Z,95888.06
2023-10-25T15:42:45.542Z,95887.28
2023-10-25T15:45:13.074Z,95895.84
2023-10-25T15:47:40.389Z,95899.47
2023-10-25T15:50:10.194Z,95906.28
2023-10-25T15:52:37.723Z,95899.47
2023-10-25T15:55:06.096Z,95894.09
2023-10-25T15:57:33.355Z,95909.28
2023-10-25T16:00:00.598Z,95902.78
2023-10-25T16:02:27.910Z,95892.78
2023-10-25T16:04:55.106Z,95898.84
2023-10-25T16:07:23.702Z,95896.59
2023-10-25T16:09:50.856Z,95892.31
2023-10-25T16:12:18.098Z,95891.06
2023-10-25T16:14:45.454Z,95896.94
2023-10-25T16:17:12.776Z,95901.84
2023-10-25T16:19:39.996Z,95899.78
2023-10-25T16:22:07.166Z,95898.38
2023-10-25T16:24:35.665Z,95901.84
2023-10-25T16:27:03.116Z,95895.22
2023-10-25T16:29:30.333Z,95886.50
2023-10-25T16:31:57.505Z,95893.28
2023-10-25T16:34:24.680Z,95897.28
2023-10-25T16:37:03.941Z,95893.81
2023-10-25T16:39:31.666Z,95908.53
2023-10-25T16:42:00.818Z,95915.03
2023-10-25T16:44:28.234Z,95917.41
2023-10-25T16:46:55.507Z,95920.09
2023-10-25T16:49:22.679Z,95924.47
2023-10-25T16:51:49.878Z,95922.38
2023-10-25T16:54:17.204Z,95926.06
2023-10-25T16:56:44.364Z,95931.50
2023-10-25T16:59:12.863Z,95923.66
2023-10-25T17:01:40.322Z,95933.78
2023-10-25T17:04:07.885Z,95943.75
2023-10-25T17:06:35.444Z,95939.34
2023-10-25T17:09:02.667Z,95926.13
2023-10-25T17:11:29.798Z,95938.44
2023-10-25T17:13:58.083Z,95934.47
2023-10-25T17:16:27.992Z,95934.22
2023-10-25T17:18:55.127Z,95949.66
2023-10-25T17:21:24.046Z,95955.00
2023-10-25T17:23:51.324Z,95955.28
2023-10-25T17:26:18.456Z,95980.88
2023-10-25T17:28:45.615Z,95968.34
2023-10-25T17:31:12.790Z,95976.28
2023-10-25T17:33:41.327Z,95988.06
2023-10-25T17:36:09.610Z,95981.91
2023-10-25T17:38:37.449Z,95979.34
2023-10-25T17:41:05.389Z,95965.25
2023-10-25T17:43:32.593Z,95957.75
2023-10-25T17:46:11.135Z,95953.84
2023-10-25T17:48:38.983Z,95953.84
2023-10-25T17:51:09.279Z,95948.72
2023-10-25T17:53:36.924Z,95929.47
2023-10-25T17:56:04.957Z,95908.91
2023-10-25T17:58:32.218Z,95910.06
2023-10-25T18:00:59.563Z,95902.09
2023-10-25T18:03:26.811Z,95888.84
2023-10-25T18:05:54.153Z,95881.25
2023-10-25T18:08:22.928Z,95873.16
2023-10-25T18:10:50.486Z,95878.13
2023-10-25T18:13:17.630Z,95871.50
2023-10-25T18:15:44.920Z,95889.44
2023-10-25T18:18:12.178Z,95869.03
2023-10-25T18:20:39.501Z,95877.59
2023-10-25T18:23:06.778Z,95856.81
2023-10-25T18:25:35.327Z,95831.94
2023-10-25T18:28:02.763Z,95841.31
2023-10-25T18:31:54.740Z,95839.50
2023-10-25T18:33:18.043Z,95863.91
2023-10-25T18:35:45.579Z,95868.81
2023-10-25T18:38:12.817Z,95861.13
2023-10-25T18:40:41.519Z,95851.59
2023-10-25T18:43:08.660Z,95840.41
2023-10-25T18:45:35.848Z,95836.19
2023-10-25T18:48:03.177Z,95843.66
2023-10-25T18:50:30.341Z,95835.41
2023-10-25T18:52:57.465Z,95833.69
2023-10-25T18:55:24.648Z,95839.41
2023-10-25T18:57:53.147Z,95879.47
2023-10-25T19:00:22.241Z,95886.00
2023-10-25T19:02:51.006Z,95860.78
2023-10-25T19:06:25.999Z,95857.16
2023-10-25T19:08:26.611Z,95838.63
2023-10-25T19:10:52.736Z,95827.63
2023-10-25T19:13:21.320Z,95835.03
2023-10-25T19:15:48.494Z,95840.28
2023-10-25T19:18:15.812Z,95839.03
2023-10-25T19:20:43.259Z,95838.75
2023-10-25T19:23:10.458Z,95846.84
2023-10-25T19:25:37.623Z,95834.19
2023-10-25T19:28:05.776Z,95839.56
2023-10-25T19:30:34.648Z,95831.66
2023-10-25T19:33:02.082Z,95840.06
2023-10-25T19:35:29.330Z,95833.22
2023-10-25T19:37:56.543Z,95823.56
2023-10-25T19:40:23.681Z,95815.16
2023-10-25T19:42:50.834Z,95820.09
2023-10-25T19:45:18.045Z,95809.81
2023-10-25T19:47:46.602Z,95822.34
2023-10-25T19:50:13.765Z,95822.19
2023-10-25T19:52:40.894Z,95820.00
2023-10-25T19:55:08.658Z,95816.19
2023-10-25T19:57:35.835Z,95817.31
2023-10-25T20:00:03.197Z,95815.78
2023-10-25T20:02:30.354Z,95832.28
2023-10-25T20:04:59.085Z,95832.28
2023-10-25T20:07:26.220Z,95836.72
2023-10-25T20:09:53.568Z,95846.09
2023-10-25T20:12:20.752Z,95838.13
2023-10-25T20:14:47.977Z,95864.63
2023-10-25T20:17:15.127Z,95876.19
2023-10-25T20:19:42.381Z,95867.94
2023-10-25T20:22:10.911Z,95959.53
2023-10-25T20:24:38.281Z,95945.72
2023-10-25T20:27:05.499Z,95936.41
2023-10-25T20:29:32.645Z,95925.00
2023-10-25T20:31:59.767Z,95895.84
2023-10-25T20:34:26.895Z,95865.91
2023-10-25T20:36:54.022Z,95844.34
2023-10-25T20:39:22.562Z,95860.50
2023-10-25T20:41:49.744Z,95865.06
2023-10-25T20:44:16.920Z,95846.09
2023-10-25T20:46:44.422Z,95849.59
2023-10-25T20:49:11.684Z,95855.44
2023-10-25T20:51:38.837Z,95856.72
2023-10-25T20:54:06.176Z,95842.47
2023-10-25T20:56:34.702Z,95839.44
2023-10-25T20:59:01.850Z,95829.31
2023-10-25T21:01:29.032Z,95823.13
2023-10-25T21:03:56.435Z,95833.72
2023-10-25T21:06:23.748Z,95837.22
2023-10-25T21:08:51.004Z,95829.47
2023-10-25T21:11:18.353Z,95815.03
2023-10-25T21:13:46.842Z,95828.66
2023-10-25T21:16:14.416Z,95829.88
2023-10-25T21:18:41.732Z,95836.41
2023-10-25T21:21:08.965Z,95839.09
2023-10-25T21:23:36.239Z,95835.59
2023-10-25T21:26:06.808Z,95819.19
2023-10-25T21:28:34.243Z,95832.75
2023-10-25T21:31:06.592Z,95842.91
2023-10-25T21:33:33.790Z,95841.81
2023-10-25T21:36:05.514Z,95849.25
2023-10-25T21:38:32.696Z,95844.66
2023-10-25T21:41:02.348Z,95849.59
2023-10-25T21:43:29.590Z,95840.88
2023-10-25T21:45:57.169Z,95846.91
2023-10-25T21:48:26.526Z,95842.31
2023-10-25T21:50:58.060Z,95841.03
2023-10-25T21:53:25.252Z,95834.88
2023-10-25T21:56:22.990Z,95828.72
2023-10-25T21:59:46.549Z,95821.25
2023-10-25T22:01:27.745Z,95823.13
2023-10-25T22:03:56.323Z,95842.59
2023-10-25T22:06:23.508Z,95841.19
2023-10-25T22:08:50.706Z,95839.59
2023-10-25T22:11:17.917Z,95851.16
2023-10-25T22:13:45.083Z,95847.66
2023-10-25T22:16:12.194Z,95848.44
2023-10-25T22:18:39.423Z,95848.78
2023-10-25T22:21:08.095Z,95850.38
2023-10-25T22:23:35.293Z,95850.38
2023-10-25T22:26:02.450Z,95841.50
2023-10-25T22:28:29.563Z,95839.44
2023-10-25T22:30:56.664Z,95841.81
2023-10-25T22:33:24.004Z,95845.94
2023-10-25T22:35:51.218Z,95850.72
2023-10-25T22:38:19.799Z,95850.09
2023-10-25T22:40:47.119Z,95863.56
2023-10-25T22:43:14.581Z,95852.00
2023-10-25T22:45:41.705Z,95855.81
2023-10-25T22:48:08.930Z,95855.50
2023-10-25T22:50:36.100Z,95861.34
2023-10-25T22:53:03.255Z,95851.19
2023-10-25T22:55:31.770Z,95851.19
2023-10-25T22:57:58.900Z,95872.09
2023-10-25T23:00:26.083Z,95871.59
2023-10-25T23:02:53.295Z,95873.66
2023-10-25T23:05:20.534Z,95868.13
2023-10-25T23:07:47.691Z,95865.44
2023-10-25T23:10:14.920Z,95855.97
2023-10-25T23:12:43.414Z,95862.13
2023-10-25T23:15:11.073Z,95868.28
2023-10-25T23:17:38.322Z,95869.25
2023-10-25T23:20:06.847Z,95871.94
2023-10-25T23:22:34.325Z,95863.88
2023-10-25T23:25:01.717Z,95871.00
2023-10-25T23:27:28.912Z,95867.81
2023-10-25T23:29:57.392Z,95860.88
2023-10-25T23:32:24.690Z,95856.13
2023-10-25T23:34:51.838Z,95865.78
2023-10-25T23:37:18.990Z,95857.72
2023-10-25T23:39:46.621Z,95868.00
2023-10-25T23:42:13.801Z,95875.44
2023-10-25T23:44:41.069Z,95863.56
2023-10-25T23:47:09.670Z,95871.59
2023-10-25T23:49:37.072Z,95875.13
2023-10-25T23:52:04.811Z,95873.66
2023-10-25T23:54:50.617Z,95871.59
2023-10-25T23:57:19.069Z,95872.88
2023-10-25T23:59:46.284Z,95874.66
